sensor_id;sensor_type;location;lat;lon;timestamp;temperature;humidity
780;DHT22;373;49.342;8.146;2023-08-01T00:00:46;18.40;99.90
780;DHT22;373;49.342;8.146;2023-08-01T00:03:13;18.40;99.90
780;DHT22;373;49.342;8.146;2023-08-01T00:05:40;18.40;99.90
780;DHT22;373;49.342;8.146;2023-08-01T00:08:10;18.40;99.90
780;DHT22;373;49.342;8.146;2023-08-01T00:10:40;18.30;99.90
780;DHT22;373;49.342;8.146;2023-08-01T00:13:08;18.20;99.90
780;DHT22;373;49.342;8.146;2023-08-01T00:15:35;18.20;99.90
780;DHT22;373;49.342;8.146;2023-08-01T00:18:02;18.30;99.90
780;DHT22;373;49.342;8.146;2023-08-01T00:20:30;18.30;99.90
780;DHT22;373;49.342;8.146;2023-08-01T00:22:57;18.40;99.90
780;DHT22;373;49.342;8.146;2023-08-01T00:25:24;18.40;99.90
780;DHT22;373;49.342;8.146;2023-08-01T00:27:53;18.40;99.90
780;DHT22;373;49.342;8.146;2023-08-01T00:30:20;18.50;99.90
780;DHT22;373;49.342;8.146;2023-08-01T00:32:47;18.50;99.90
780;DHT22;373;49.342;8.146;2023-08-01T00:35:17;18.50;99.90
780;DHT22;373;49.342;8.146;2023-08-01T00:37:45;18.60;99.90
780;DHT22;373;49.342;8.146;2023-08-01T00:40:12;18.60;99.90
780;DHT22;373;49.342;8.146;2023-08-01T00:42:39;18.50;99.90
780;DHT22;373;49.342;8.146;2023-08-01T00:45:09;18.40;99.90
780;DHT22;373;49.342;8.146;2023-08-01T00:47:36;18.30;99.90
780;DHT22;373;49.342;8.146;2023-08-01T00:50:04;18.20;99.90
780;DHT22;373;49.342;8.146;2023-08-01T00:52:32;18.40;99.90
780;DHT22;373;49.342;8.146;2023-08-01T00:54:59;18.50;99.90
780;DHT22;373;49.342;8.146;2023-08-01T00:57:27;18.70;99.90
780;DHT22;373;49.342;8.146;2023-08-01T00:59:54;18.70;99.90
780;DHT22;373;49.342;8.146;2023-08-01T01:02:22;18.80;99.90
780;DHT22;373;49.342;8.146;2023-08-01T01:04:49;18.80;99.90
780;DHT22;373;49.342;8.146;2023-08-01T01:07:17;18.70;99.90
780;DHT22;373;49.342;8.146;2023-08-01T01:09:44;18.70;99.90
780;DHT22;373;49.342;8.146;2023-08-01T01:12:11;18.70;99.90
780;DHT22;373;49.342;8.146;2023-08-01T01:14:38;18.70;99.90
780;DHT22;373;49.342;8.146;2023-08-01T01:17:06;18.60;99.90
780;DHT22;373;49.342;8.146;2023-08-01T01:19:34;18.60;99.90
780;DHT22;373;49.342;8.146;2023-08-01T01:22:04;18.60;99.90
780;DHT22;373;49.342;8.146;2023-08-01T01:24:33;18.70;99.90
780;DHT22;373;49.342;8.146;2023-08-01T01:27:01;18.70;99.90
780;DHT22;373;49.342;8.146;2023-08-01T01:29:31;18.80;99.90
780;DHT22;373;49.342;8.146;2023-08-01T01:32:00;18.80;99.90
780;DHT22;373;49.342;8.146;2023-08-01T01:34:27;18.90;99.90
780;DHT22;373;49.342;8.146;2023-08-01T01:36:58;18.80;99.90
780;DHT22;373;49.342;8.146;2023-08-01T01:39:27;18.80;99.90
780;DHT22;373;49.342;8.146;2023-08-01T01:41:55;18.90;99.90
780;DHT22;373;49.342;8.146;2023-08-01T01:44:23;18.90;99.90
780;DHT22;373;49.342;8.146;2023-08-01T01:46:50;18.90;99.90
780;DHT22;373;49.342;8.146;2023-08-01T01:49:17;18.90;99.90
780;DHT22;373;49.342;8.146;2023-08-01T01:51:44;19.00;99.90
780;DHT22;373;49.342;8.146;2023-08-01T01:54:17;19.10;99.90
780;DHT22;373;49.342;8.146;2023-08-01T01:56:45;19.10;99.90
780;DHT22;373;49.342;8.146;2023-08-01T01:59:13;19.10;99.90
780;DHT22;373;49.342;8.146;2023-08-01T02:01:40;19.00;99.90
780;DHT22;373;49.342;8.146;2023-08-01T02:04:07;18.90;99.90
780;DHT22;373;49.342;8.146;2023-08-01T02:06:34;19.00;99.90
780;DHT22;373;49.342;8.146;2023-08-01T02:09:02;19.00;99.90
780;DHT22;373;49.342;8.146;2023-08-01T02:11:30;19.20;99.90
780;DHT22;373;49.342;8.146;2023-08-01T02:13:58;19.10;99.90
780;DHT22;373;49.342;8.146;2023-08-01T02:16:27;19.10;99.90
780;DHT22;373;49.342;8.146;2023-08-01T02:18:54;19.20;99.90
780;DHT22;373;49.342;8.146;2023-08-01T02:21:21;19.10;99.90
780;DHT22;373;49.342;8.146;2023-08-01T02:23:49;19.20;99.90
780;DHT22;373;49.342;8.146;2023-08-01T02:26:16;19.20;99.90
780;DHT22;373;49.342;8.146;2023-08-01T02:28:44;19.20;99.90
780;DHT22;373;49.342;8.146;2023-08-01T02:31:13;19.10;99.90
780;DHT22;373;49.342;8.146;2023-08-01T02:33:42;19.00;99.90
780;DHT22;373;49.342;8.146;2023-08-01T02:36:10;19.00;99.90
780;DHT22;373;49.342;8.146;2023-08-01T02:38:37;19.10;99.90
780;DHT22;373;49.342;8.146;2023-08-01T02:41:05;19.00;99.90
780;DHT22;373;49.342;8.146;2023-08-01T02:43:32;18.90;99.90
780;DHT22;373;49.342;8.146;2023-08-01T02:46:02;18.90;99.90
780;DHT22;373;49.342;8.146;2023-08-01T02:48:33;19.00;99.90
780;DHT22;373;49.342;8.146;2023-08-01T02:51:01;18.90;99.90
780;DHT22;373;49.342;8.146;2023-08-01T02:53:28;18.90;99.90
780;DHT22;373;49.342;8.146;2023-08-01T02:55:56;18.90;99.90
780;DHT22;373;49.342;8.146;2023-08-01T03:12:53;18.90;99.90
780;DHT22;373;49.342;8.146;2023-08-01T03:15:21;18.90;99.90
780;DHT22;373;49.342;8.146;2023-08-01T03:17:48;18.90;99.90
780;DHT22;373;49.342;8.146;2023-08-01T03:20:15;19.00;99.90
780;DHT22;373;49.342;8.146;2023-08-01T03:22:42;18.90;99.90
780;DHT22;373;49.342;8.146;2023-08-01T03:25:09;19.00;99.90
780;DHT22;373;49.342;8.146;2023-08-01T03:27:36;19.00;99.90
780;DHT22;373;49.342;8.146;2023-08-01T03:30:06;18.90;99.90
780;DHT22;373;49.342;8.146;2023-08-01T03:32:34;18.90;99.90
780;DHT22;373;49.342;8.146;2023-08-01T03:35:03;18.90;99.90
780;DHT22;373;49.342;8.146;2023-08-01T03:37:30;18.90;99.90
780;DHT22;373;49.342;8.146;2023-08-01T03:39:57;19.00;99.90
780;DHT22;373;49.342;8.146;2023-08-01T03:42:24;19.00;99.90
780;DHT22;373;49.342;8.146;2023-08-01T03:44:52;19.00;99.90
780;DHT22;373;49.342;8.146;2023-08-01T03:47:20;19.10;99.90
780;DHT22;373;49.342;8.146;2023-08-01T03:49:47;19.20;99.90
780;DHT22;373;49.342;8.146;2023-08-01T03:52:14;19.20;99.90
780;DHT22;373;49.342;8.146;2023-08-01T03:54:41;19.10;99.90
780;DHT22;373;49.342;8.146;2023-08-01T03:57:08;19.10;99.90
780;DHT22;373;49.342;8.146;2023-08-01T03:59:36;19.20;99.90
780;DHT22;373;49.342;8.146;2023-08-01T04:02:04;19.10;99.90
780;DHT22;373;49.342;8.146;2023-08-01T04:04:32;18.90;99.90
780;DHT22;373;49.342;8.146;2023-08-01T04:06:59;18.90;99.90
780;DHT22;373;49.342;8.146;2023-08-01T04:09:26;18.80;99.90
780;DHT22;373;49.342;8.146;2023-08-01T04:11:53;18.80;99.90
780;DHT22;373;49.342;8.146;2023-08-01T04:14:20;18.70;99.90
780;DHT22;373;49.342;8.146;2023-08-01T04:16:48;18.70;99.90
780;DHT22;373;49.342;8.146;2023-08-01T04:19:15;18.60;99.90
780;DHT22;373;49.342;8.146;2023-08-01T04:21:43;18.50;99.90
780;DHT22;373;49.342;8.146;2023-08-01T04:24:10;18.50;99.90
780;DHT22;373;49.342;8.146;2023-08-01T04:26:37;18.60;99.90
780;DHT22;373;49.342;8.146;2023-08-01T04:29:04;18.50;99.90
780;DHT22;373;49.342;8.146;2023-08-01T04:31:31;18.60;99.90
780;DHT22;373;49.342;8.146;2023-08-01T04:33:59;18.50;99.90
780;DHT22;373;49.342;8.146;2023-08-01T04:36:26;18.50;99.90
780;DHT22;373;49.342;8.146;2023-08-01T04:38:54;18.40;99.90
780;DHT22;373;49.342;8.146;2023-08-01T04:41:21;18.30;99.90
780;DHT22;373;49.342;8.146;2023-08-01T04:43:48;18.30;99.90
780;DHT22;373;49.342;8.146;2023-08-01T04:46:15;18.30;99.90
780;DHT22;373;49.342;8.146;2023-08-01T04:48:42;18.40;99.90
780;DHT22;373;49.342;8.146;2023-08-01T04:51:09;18.10;99.90
780;DHT22;373;49.342;8.146;2023-08-01T04:53:36;18.10;99.90
780;DHT22;373;49.342;8.146;2023-08-01T04:56:05;18.00;99.90
780;DHT22;373;49.342;8.146;2023-08-01T04:58:32;18.00;99.90
780;DHT22;373;49.342;8.146;2023-08-01T05:00:59;18.00;99.90
780;DHT22;373;49.342;8.146;2023-08-01T05:03:26;17.90;99.90
780;DHT22;373;49.342;8.146;2023-08-01T05:05:53;18.00;99.90
780;DHT22;373;49.342;8.146;2023-08-01T05:08:20;17.90;99.90
780;DHT22;373;49.342;8.146;2023-08-01T05:10:48;17.90;99.90
780;DHT22;373;49.342;8.146;2023-08-01T05:13:16;17.90;99.90
780;DHT22;373;49.342;8.146;2023-08-01T05:15:44;17.80;99.90
780;DHT22;373;49.342;8.146;2023-08-01T05:18:13;17.80;99.90
780;DHT22;373;49.342;8.146;2023-08-01T05:20:40;17.70;99.90
780;DHT22;373;49.342;8.146;2023-08-01T05:23:07;17.70;99.90
780;DHT22;373;49.342;8.146;2023-08-01T05:25:34;17.70;99.90
780;DHT22;373;49.342;8.146;2023-08-01T05:28:01;17.70;99.90
780;DHT22;373;49.342;8.146;2023-08-01T05:30:31;17.70;99.90
780;DHT22;373;49.342;8.146;2023-08-01T05:32:58;17.70;99.90
780;DHT22;373;49.342;8.146;2023-08-01T05:35:25;17.70;99.90
780;DHT22;373;49.342;8.146;2023-08-01T05:37:52;17.60;99.90
780;DHT22;373;49.342;8.146;2023-08-01T05:40:18;17.70;99.90
780;DHT22;373;49.342;8.146;2023-08-01T05:42:45;17.80;99.90
780;DHT22;373;49.342;8.146;2023-08-01T05:45:12;17.70;99.90
780;DHT22;373;49.342;8.146;2023-08-01T05:47:41;17.80;99.90
780;DHT22;373;49.342;8.146;2023-08-01T05:50:09;17.90;99.90
780;DHT22;373;49.342;8.146;2023-08-01T05:52:36;17.90;99.90
780;DHT22;373;49.342;8.146;2023-08-01T05:55:04;18.10;99.90
780;DHT22;373;49.342;8.146;2023-08-01T05:57:31;18.10;99.90
780;DHT22;373;49.342;8.146;2023-08-01T05:59:58;18.20;99.90
780;DHT22;373;49.342;8.146;2023-08-01T06:02:25;18.20;99.90
780;DHT22;373;49.342;8.146;2023-08-01T06:04:54;18.20;99.90
780;DHT22;373;49.342;8.146;2023-08-01T06:07:21;18.20;99.90
780;DHT22;373;49.342;8.146;2023-08-01T06:09:48;18.20;99.90
780;DHT22;373;49.342;8.146;2023-08-01T06:12:17;18.20;99.90
780;DHT22;373;49.342;8.146;2023-08-01T06:14:44;18.10;99.90
780;DHT22;373;49.342;8.146;2023-08-01T06:17:20;18.00;99.90
780;DHT22;373;49.342;8.146;2023-08-01T06:19:47;18.00;99.90
780;DHT22;373;49.342;8.146;2023-08-01T06:22:17;17.90;99.90
780;DHT22;373;49.342;8.146;2023-08-01T06:24:44;18.00;99.90
780;DHT22;373;49.342;8.146;2023-08-01T06:27:11;18.00;99.90
780;DHT22;373;49.342;8.146;2023-08-01T06:29:38;18.10;99.90
780;DHT22;373;49.342;8.146;2023-08-01T06:32:06;18.00;99.90
780;DHT22;373;49.342;8.146;2023-08-01T06:34:33;17.90;99.90
780;DHT22;373;49.342;8.146;2023-08-01T06:37:00;17.90;99.90
780;DHT22;373;49.342;8.146;2023-08-01T06:39:28;17.80;99.90
780;DHT22;373;49.342;8.146;2023-08-01T06:41:55;17.70;99.90
780;DHT22;373;49.342;8.146;2023-08-01T06:44:22;17.70;99.90
780;DHT22;373;49.342;8.146;2023-08-01T06:46:49;17.70;99.90
780;DHT22;373;49.342;8.146;2023-08-01T06:49:16;17.80;99.90
780;DHT22;373;49.342;8.146;2023-08-01T06:51:43;18.00;99.90
780;DHT22;373;49.342;8.146;2023-08-01T06:54:11;18.10;99.90
780;DHT22;373;49.342;8.146;2023-08-01T06:56:39;18.00;99.90
780;DHT22;373;49.342;8.146;2023-08-01T06:59:09;18.00;99.90
780;DHT22;373;49.342;8.146;2023-08-01T07:01:37;17.90;99.90
780;DHT22;373;49.342;8.146;2023-08-01T07:04:06;18.00;99.90
780;DHT22;373;49.342;8.146;2023-08-01T07:06:33;18.10;99.90
780;DHT22;373;49.342;8.146;2023-08-01T07:09:00;18.20;99.90
780;DHT22;373;49.342;8.146;2023-08-01T07:11:27;18.40;99.90
780;DHT22;373;49.342;8.146;2023-08-01T07:13:56;18.50;99.90
780;DHT22;373;49.342;8.146;2023-08-01T07:16:23;18.70;99.90
780;DHT22;373;49.342;8.146;2023-08-01T07:18:50;18.70;99.90
780;DHT22;373;49.342;8.146;2023-08-01T07:21:17;18.90;99.90
780;DHT22;373;49.342;8.146;2023-08-01T07:23:44;18.80;99.90
780;DHT22;373;49.342;8.146;2023-08-01T07:26:11;18.80;99.90
780;DHT22;373;49.342;8.146;2023-08-01T07:28:42;18.90;99.90
780;DHT22;373;49.342;8.146;2023-08-01T07:31:11;19.10;99.90
780;DHT22;373;49.342;8.146;2023-08-01T07:33:42;19.10;99.90
780;DHT22;373;49.342;8.146;2023-08-01T07:36:09;19.40;99.90
780;DHT22;373;49.342;8.146;2023-08-01T07:38:36;19.60;99.90
780;DHT22;373;49.342;8.146;2023-08-01T07:41:03;19.60;24.20
780;DHT22;373;49.342;8.146;2023-08-01T07:43:30;19.80;94.70
780;DHT22;373;49.342;8.146;2023-08-01T07:45:58;20.00;99.90
780;DHT22;373;49.342;8.146;2023-08-01T07:48:27;20.20;68.30
780;DHT22;373;49.342;8.146;2023-08-01T07:50:54;20.30;45.20
780;DHT22;373;49.342;8.146;2023-08-01T07:53:21;20.40;99.90
780;DHT22;373;49.342;8.146;2023-08-01T07:55:48;20.50;10.30
780;DHT22;373;49.342;8.146;2023-08-01T07:58:16;20.50;76.00
780;DHT22;373;49.342;8.146;2023-08-01T08:00:43;20.50;61.80
780;DHT22;373;49.342;8.146;2023-08-01T08:03:10;20.60;70.80
780;DHT22;373;49.342;8.146;2023-08-01T08:05:39;20.90;32.60
780;DHT22;373;49.342;8.146;2023-08-01T08:08:06;21.20;1.00
780;DHT22;373;49.342;8.146;2023-08-01T08:10:33;21.30;1.00
780;DHT22;373;49.342;8.146;2023-08-01T08:13:00;21.50;1.00
780;DHT22;373;49.342;8.146;2023-08-01T08:15:27;21.50;1.00
780;DHT22;373;49.342;8.146;2023-08-01T08:17:59;21.40;1.00
780;DHT22;373;49.342;8.146;2023-08-01T08:20:27;21.20;1.00
780;DHT22;373;49.342;8.146;2023-08-01T08:22:55;21.30;1.00
780;DHT22;373;49.342;8.146;2023-08-01T08:25:22;21.50;1.00
780;DHT22;373;49.342;8.146;2023-08-01T08:27:49;21.10;1.00
780;DHT22;373;49.342;8.146;2023-08-01T08:30:17;21.10;1.00
780;DHT22;373;49.342;8.146;2023-08-01T08:32:44;21.40;1.00
780;DHT22;373;49.342;8.146;2023-08-01T08:35:11;21.70;1.00
780;DHT22;373;49.342;8.146;2023-08-01T08:37:38;21.60;1.00
780;DHT22;373;49.342;8.146;2023-08-01T08:40:07;21.40;1.00
780;DHT22;373;49.342;8.146;2023-08-01T10:50:55;24.80;99.90
780;DHT22;373;49.342;8.146;2023-08-01T10:53:23;24.60;99.90
780;DHT22;373;49.342;8.146;2023-08-01T10:55:51;24.50;99.90
780;DHT22;373;49.342;8.146;2023-08-01T10:58:19;24.70;99.90
780;DHT22;373;49.342;8.146;2023-08-01T11:00:57;25.30;99.90
780;DHT22;373;49.342;8.146;2023-08-01T11:03:34;25.50;99.90
780;DHT22;373;49.342;8.146;2023-08-01T11:06:02;25.50;99.90
780;DHT22;373;49.342;8.146;2023-08-01T11:08:37;25.50;99.90
780;DHT22;373;49.342;8.146;2023-08-01T11:11:11;25.70;99.90
780;DHT22;373;49.342;8.146;2023-08-01T11:13:38;25.30;99.90
780;DHT22;373;49.342;8.146;2023-08-01T11:16:05;25.40;99.90
780;DHT22;373;49.342;8.146;2023-08-01T11:18:41;24.60;99.90
780;DHT22;373;49.342;8.146;2023-08-01T11:21:10;24.60;99.90
780;DHT22;373;49.342;8.146;2023-08-01T11:23:37;25.20;99.90
780;DHT22;373;49.342;8.146;2023-08-01T11:26:07;24.90;99.90
780;DHT22;373;49.342;8.146;2023-08-01T11:28:34;24.70;99.90
780;DHT22;373;49.342;8.146;2023-08-01T11:31:01;24.80;99.90
780;DHT22;373;49.342;8.146;2023-08-01T11:33:36;25.70;99.90
780;DHT22;373;49.342;8.146;2023-08-01T11:36:04;25.60;99.90
780;DHT22;373;49.342;8.146;2023-08-01T11:38:34;26.00;99.90
780;DHT22;373;49.342;8.146;2023-08-01T11:41:02;25.40;99.90
780;DHT22;373;49.342;8.146;2023-08-01T11:43:38;25.20;99.90
780;DHT22;373;49.342;8.146;2023-08-01T11:46:05;25.20;99.90
780;DHT22;373;49.342;8.146;2023-08-01T11:48:32;25.40;99.90
780;DHT22;373;49.342;8.146;2023-08-01T11:51:00;25.00;99.90
780;DHT22;373;49.342;8.146;2023-08-01T11:53:28;24.70;99.90
780;DHT22;373;49.342;8.146;2023-08-01T11:55:58;25.50;99.90
780;DHT22;373;49.342;8.146;2023-08-01T11:58:28;25.90;99.90
780;DHT22;373;49.342;8.146;2023-08-01T12:01:02;25.70;99.90
780;DHT22;373;49.342;8.146;2023-08-01T12:03:29;25.10;99.90
780;DHT22;373;49.342;8.146;2023-08-01T12:06:03;25.00;99.90
780;DHT22;373;49.342;8.146;2023-08-01T12:08:32;24.80;99.90
780;DHT22;373;49.342;8.146;2023-08-01T12:11:01;24.50;99.90
780;DHT22;373;49.342;8.146;2023-08-01T12:13:28;24.20;99.90
780;DHT22;373;49.342;8.146;2023-08-01T12:15:57;24.20;99.90
780;DHT22;373;49.342;8.146;2023-08-01T12:18:25;24.30;99.90
780;DHT22;373;49.342;8.146;2023-08-01T12:20:53;24.10;99.90
780;DHT22;373;49.342;8.146;2023-08-01T12:23:21;24.10;99.90
780;DHT22;373;49.342;8.146;2023-08-01T12:25:48;24.10;99.90
780;DHT22;373;49.342;8.146;2023-08-01T12:28:19;24.00;99.90
780;DHT22;373;49.342;8.146;2023-08-01T12:30:46;24.20;99.90
780;DHT22;373;49.342;8.146;2023-08-01T12:33:14;24.20;99.90
780;DHT22;373;49.342;8.146;2023-08-01T12:35:41;24.20;99.90
780;DHT22;373;49.342;8.146;2023-08-01T12:38:08;24.80;99.90
780;DHT22;373;49.342;8.146;2023-08-01T12:40:36;25.20;99.90
780;DHT22;373;49.342;8.146;2023-08-01T12:43:03;25.30;99.90
780;DHT22;373;49.342;8.146;2023-08-01T12:45:32;25.20;99.90
780;DHT22;373;49.342;8.146;2023-08-01T12:47:59;25.20;99.90
780;DHT22;373;49.342;8.146;2023-08-01T12:50:26;25.30;99.90
780;DHT22;373;49.342;8.146;2023-08-01T12:52:53;25.40;99.90
780;DHT22;373;49.342;8.146;2023-08-01T12:55:20;25.00;99.90
780;DHT22;373;49.342;8.146;2023-08-01T12:57:47;25.20;99.90
780;DHT22;373;49.342;8.146;2023-08-01T13:00:15;25.50;99.90
780;DHT22;373;49.342;8.146;2023-08-01T13:02:43;25.70;99.90
780;DHT22;373;49.342;8.146;2023-08-01T13:05:10;24.90;99.90
780;DHT22;373;49.342;8.146;2023-08-01T13:07:37;24.60;99.90
780;DHT22;373;49.342;8.146;2023-08-01T13:10:05;24.70;99.90
780;DHT22;373;49.342;8.146;2023-08-01T13:12:32;24.80;99.90
780;DHT22;373;49.342;8.146;2023-08-01T13:14:59;24.50;99.90
780;DHT22;373;49.342;8.146;2023-08-01T13:17:26;24.30;99.90
780;DHT22;373;49.342;8.146;2023-08-01T13:19:54;24.20;99.90
780;DHT22;373;49.342;8.146;2023-08-01T13:22:22;24.00;99.90
780;DHT22;373;49.342;8.146;2023-08-01T13:24:49;24.30;99.90
780;DHT22;373;49.342;8.146;2023-08-01T13:27:16;24.50;99.90
780;DHT22;373;49.342;8.146;2023-08-01T13:29:43;24.50;99.90
780;DHT22;373;49.342;8.146;2023-08-01T13:32:10;23.90;99.90
780;DHT22;373;49.342;8.146;2023-08-01T13:34:37;23.70;99.90
780;DHT22;373;49.342;8.146;2023-08-01T13:37:06;24.10;99.90
780;DHT22;373;49.342;8.146;2023-08-01T13:39:34;24.30;99.90
780;DHT22;373;49.342;8.146;2023-08-01T13:42:01;24.40;99.90
780;DHT22;373;49.342;8.146;2023-08-01T13:44:28;24.50;99.90
780;DHT22;373;49.342;8.146;2023-08-01T13:46:55;24.70;99.90
780;DHT22;373;49.342;8.146;2023-08-01T13:49:22;24.90;99.90
780;DHT22;373;49.342;8.146;2023-08-01T13:51:50;24.60;99.90
780;DHT22;373;49.342;8.146;2023-08-01T13:54:18;24.80;99.90
780;DHT22;373;49.342;8.146;2023-08-01T13:56:45;25.00;99.90
780;DHT22;373;49.342;8.146;2023-08-01T13:59:12;24.70;99.90
780;DHT22;373;49.342;8.146;2023-08-01T14:01:39;25.00;99.90
780;DHT22;373;49.342;8.146;2023-08-01T14:04:06;25.20;99.90
780;DHT22;373;49.342;8.146;2023-08-01T14:06:33;25.10;99.90
780;DHT22;373;49.342;8.146;2023-08-01T14:09:00;24.90;99.90
780;DHT22;373;49.342;8.146;2023-08-01T14:11:29;24.70;99.90
780;DHT22;373;49.342;8.146;2023-08-01T14:13:56;25.20;99.90
780;DHT22;373;49.342;8.146;2023-08-01T14:16:24;25.00;99.90
780;DHT22;373;49.342;8.146;2023-08-01T14:18:51;25.20;99.90
780;DHT22;373;49.342;8.146;2023-08-01T14:21:18;25.10;99.90
780;DHT22;373;49.342;8.146;2023-08-01T14:23:45;25.20;99.90
780;DHT22;373;49.342;8.146;2023-08-01T14:26:12;25.20;99.90
780;DHT22;373;49.342;8.146;2023-08-01T14:28:40;24.90;99.90
780;DHT22;373;49.342;8.146;2023-08-01T14:31:07;25.00;99.90
780;DHT22;373;49.342;8.146;2023-08-01T14:33:34;24.80;99.90
780;DHT22;373;49.342;8.146;2023-08-01T14:36:02;24.70;99.90
780;DHT22;373;49.342;8.146;2023-08-01T14:38:29;24.90;99.90
780;DHT22;373;49.342;8.146;2023-08-01T14:40:56;25.20;99.90
780;DHT22;373;49.342;8.146;2023-08-01T14:43:23;25.60;99.90
780;DHT22;373;49.342;8.146;2023-08-01T14:45:51;25.70;99.90
780;DHT22;373;49.342;8.146;2023-08-01T14:48:18;25.40;99.90
780;DHT22;373;49.342;8.146;2023-08-01T14:50:46;25.30;99.90
780;DHT22;373;49.342;8.146;2023-08-01T14:53:13;24.60;99.90
780;DHT22;373;49.342;8.146;2023-08-01T14:55:40;24.40;99.90
780;DHT22;373;49.342;8.146;2023-08-01T14:58:07;24.20;99.90
780;DHT22;373;49.342;8.146;2023-08-01T15:00:34;23.80;99.90
780;DHT22;373;49.342;8.146;2023-08-01T15:03:03;23.80;99.90
780;DHT22;373;49.342;8.146;2023-08-01T15:05:30;24.00;99.90
780;DHT22;373;49.342;8.146;2023-08-01T15:07:57;24.10;99.90
780;DHT22;373;49.342;8.146;2023-08-01T15:10:25;24.40;99.90
780;DHT22;373;49.342;8.146;2023-08-01T15:12:53;24.50;99.90
780;DHT22;373;49.342;8.146;2023-08-01T15:15:21;23.80;99.90
780;DHT22;373;49.342;8.146;2023-08-01T15:17:48;23.70;99.90
780;DHT22;373;49.342;8.146;2023-08-01T15:20:16;23.90;99.90
780;DHT22;373;49.342;8.146;2023-08-01T15:22:43;24.00;99.90
780;DHT22;373;49.342;8.146;2023-08-01T15:25:10;24.20;99.90
780;DHT22;373;49.342;8.146;2023-08-01T15:27:37;24.30;99.90
780;DHT22;373;49.342;8.146;2023-08-01T15:30:05;24.50;99.90
780;DHT22;373;49.342;8.146;2023-08-01T15:32:32;24.70;99.90
780;DHT22;373;49.342;8.146;2023-08-01T15:35:00;24.80;99.90
780;DHT22;373;49.342;8.146;2023-08-01T15:37:28;24.90;99.90
780;DHT22;373;49.342;8.146;2023-08-01T15:39:55;24.70;99.90
780;DHT22;373;49.342;8.146;2023-08-01T15:42:22;24.30;99.90
780;DHT22;373;49.342;8.146;2023-08-01T15:44:49;24.30;99.90
780;DHT22;373;49.342;8.146;2023-08-01T15:47:17;24.40;99.90
780;DHT22;373;49.342;8.146;2023-08-01T15:49:45;24.40;99.90
780;DHT22;373;49.342;8.146;2023-08-01T15:52:13;24.20;99.90
780;DHT22;373;49.342;8.146;2023-08-01T15:54:42;24.00;99.90
780;DHT22;373;49.342;8.146;2023-08-01T15:57:09;23.90;99.90
780;DHT22;373;49.342;8.146;2023-08-01T15:59:36;23.40;99.90
780;DHT22;373;49.342;8.146;2023-08-01T16:02:04;23.40;99.90
780;DHT22;373;49.342;8.146;2023-08-01T16:04:31;23.40;99.90
780;DHT22;373;49.342;8.146;2023-08-01T16:06:58;23.30;99.90
780;DHT22;373;49.342;8.146;2023-08-01T16:09:25;23.10;99.90
780;DHT22;373;49.342;8.146;2023-08-01T16:11:54;22.10;99.90
780;DHT22;373;49.342;8.146;2023-08-01T16:14:21;21.50;99.90
780;DHT22;373;49.342;8.146;2023-08-01T16:16:49;21.10;1.00
780;DHT22;373;49.342;8.146;2023-08-01T16:19:16;21.10;1.00
780;DHT22;373;49.342;8.146;2023-08-01T16:21:43;20.80;1.00
780;DHT22;373;49.342;8.146;2023-08-01T16:24:11;20.70;1.00
780;DHT22;373;49.342;8.146;2023-08-01T16:26:40;21.20;1.00
780;DHT22;373;49.342;8.146;2023-08-01T16:29:09;20.90;99.90
780;DHT22;373;49.342;8.146;2023-08-01T16:31:37;21.10;1.00
780;DHT22;373;49.342;8.146;2023-08-01T16:34:06;21.00;27.40
780;DHT22;373;49.342;8.146;2023-08-01T16:36:34;20.80;1.00
780;DHT22;373;49.342;8.146;2023-08-01T16:39:02;20.90;23.90
780;DHT22;373;49.342;8.146;2023-08-01T16:41:31;21.30;90.30
780;DHT22;373;49.342;8.146;2023-08-01T16:44:03;21.30;99.90
780;DHT22;373;49.342;8.146;2023-08-01T16:46:31;21.30;65.50
780;DHT22;373;49.342;8.146;2023-08-01T16:48:59;21.30;57.00
780;DHT22;373;49.342;8.146;2023-08-01T16:51:26;21.10;1.00
780;DHT22;373;49.342;8.146;2023-08-01T16:53:53;21.20;1.00
780;DHT22;373;49.342;8.146;2023-08-01T16:56:20;21.30;1.00
780;DHT22;373;49.342;8.146;2023-08-01T16:58:48;21.20;99.90
780;DHT22;373;49.342;8.146;2023-08-01T17:01:16;21.20;99.90
780;DHT22;373;49.342;8.146;2023-08-01T17:03:45;21.00;20.10
780;DHT22;373;49.342;8.146;2023-08-01T17:06:12;20.80;1.00
780;DHT22;373;49.342;8.146;2023-08-01T17:08:38;20.70;99.90
780;DHT22;373;49.342;8.146;2023-08-01T17:11:06;20.70;1.00
780;DHT22;373;49.342;8.146;2023-08-01T17:13:34;20.70;1.00
780;DHT22;373;49.342;8.146;2023-08-01T17:16:01;20.40;1.00
780;DHT22;373;49.342;8.146;2023-08-01T17:18:28;20.00;14.60
780;DHT22;373;49.342;8.146;2023-08-01T17:20:56;19.50;99.90
780;DHT22;373;49.342;8.146;2023-08-01T17:23:23;19.40;99.90
780;DHT22;373;49.342;8.146;2023-08-01T17:25:51;19.50;99.90
780;DHT22;373;49.342;8.146;2023-08-01T17:28:18;19.60;34.40
780;DHT22;373;49.342;8.146;2023-08-01T17:30:45;19.70;43.80
780;DHT22;373;49.342;8.146;2023-08-01T17:33:12;19.80;28.30
780;DHT22;373;49.342;8.146;2023-08-01T17:35:41;20.00;1.00
780;DHT22;373;49.342;8.146;2023-08-01T17:38:09;20.10;1.00
780;DHT22;373;49.342;8.146;2023-08-01T17:40:36;20.20;1.00
780;DHT22;373;49.342;8.146;2023-08-01T17:43:03;20.10;35.70
780;DHT22;373;49.342;8.146;2023-08-01T17:45:30;20.00;1.00
780;DHT22;373;49.342;8.146;2023-08-01T17:47:57;20.00;1.00
780;DHT22;373;49.342;8.146;2023-08-01T17:50:24;20.00;1.00
780;DHT22;373;49.342;8.146;2023-08-01T17:52:51;19.80;1.00
780;DHT22;373;49.342;8.146;2023-08-01T17:55:19;19.80;7.40
780;DHT22;373;49.342;8.146;2023-08-01T17:57:46;19.90;35.90
780;DHT22;373;49.342;8.146;2023-08-01T18:00:13;19.70;1.00
780;DHT22;373;49.342;8.146;2023-08-01T18:02:41;19.80;1.00
780;DHT22;373;49.342;8.146;2023-08-01T18:05:08;19.90;1.00
780;DHT22;373;49.342;8.146;2023-08-01T18:07:35;19.30;62.20
780;DHT22;373;49.342;8.146;2023-08-01T18:10:02;19.20;48.70
780;DHT22;373;49.342;8.146;2023-08-01T18:12:30;19.30;85.80
780;DHT22;373;49.342;8.146;2023-08-01T18:14:57;19.30;68.70
780;DHT22;373;49.342;8.146;2023-08-01T18:17:24;19.30;15.20
780;DHT22;373;49.342;8.146;2023-08-01T18:19:52;19.20;1.00
780;DHT22;373;49.342;8.146;2023-08-01T18:22:19;19.30;40.50
780;DHT22;373;49.342;8.146;2023-08-01T18:24:46;19.30;21.90
780;DHT22;373;49.342;8.146;2023-08-01T18:27:13;19.40;1.00
780;DHT22;373;49.342;8.146;2023-08-01T18:29:41;19.40;1.00
780;DHT22;373;49.342;8.146;2023-08-01T18:32:08;19.40;1.00
780;DHT22;373;49.342;8.146;2023-08-01T18:34:35;19.20;1.00
780;DHT22;373;49.342;8.146;2023-08-01T18:37:02;19.10;1.00
780;DHT22;373;49.342;8.146;2023-08-01T18:39:30;19.00;1.00
780;DHT22;373;49.342;8.146;2023-08-01T18:41:57;19.00;1.00
780;DHT22;373;49.342;8.146;2023-08-01T18:44:26;19.00;1.00
780;DHT22;373;49.342;8.146;2023-08-01T18:46:54;19.00;1.00
780;DHT22;373;49.342;8.146;2023-08-01T18:49:21;19.00;1.00
780;DHT22;373;49.342;8.146;2023-08-01T18:51:49;18.90;1.00
780;DHT22;373;49.342;8.146;2023-08-01T18:54:16;18.90;1.00
780;DHT22;373;49.342;8.146;2023-08-01T18:56:43;18.80;1.00
780;DHT22;373;49.342;8.146;2023-08-01T18:59:10;18.70;1.00
780;DHT22;373;49.342;8.146;2023-08-01T19:01:37;18.70;1.00